sensor_id;sensor_type;location;lat;lon;timestamp;pressure;altitude;pressure_sealevel;temperature;humidity
81816;BME280;71249;52.084;5.304;2024-03-06T00:00:41;101825.0;;;4.45;87.44
81816;BME280;71249;52.084;5.304;2024-03-06T00:02:17;101823.0;;;4.46;87.5
81816;BME280;71249;52.084;5.304;2024-03-06T00:03:53;101823.0;;;4.53;87.64
81816;BME280;71249;52.084;5.304;2024-03-06T00:07:06;101830.0;;;4.53;87.72
81816;BME280;71249;52.084;5.304;2024-03-06T00:08:42;101831.0;;;4.54;88.02
81816;BME280;71249;52.084;5.304;2024-03-06T00:10:18;101836.0;;;4.59;87.8
81816;BME280;71249;52.084;5.304;2024-03-06T00:11:54;101839.0;;;4.63;87.69
81816;BME280;71249;52.084;5.304;2024-03-06T00:15:08;101841.0;;;4.63;87.66
81816;BME280;71249;52.084;5.304;2024-03-06T00:16:45;101846.0;;;4.66;87.84
81816;BME280;71249;52.084;5.304;2024-03-06T00:18:20;101847.0;;;4.67;87.51
81816;BME280;71249;52.084;5.304;2024-03-06T00:21:33;101846.0;;;4.7;87.79
81816;BME280;71249;52.084;5.304;2024-03-06T00:23:09;101847.0;;;4.7;87.88
81816;BME280;71249;52.084;5.304;2024-03-06T00:24:45;101846.0;;;4.68;87.67
81816;BME280;71249;52.084;5.304;2024-03-06T00:27:57;101848.0;;;4.66;87.55
81816;BME280;71249;52.084;5.304;2024-03-06T00:29:33;101849.0;;;4.63;86.98
81816;BME280;71249;52.084;5.304;2024-03-06T00:31:09;101846.0;;;4.57;87.21
81816;BME280;71249;52.084;5.304;2024-03-06T00:34:20;101846.0;;;4.49;86.89
81816;BME280;71249;52.084;5.304;2024-03-06T00:35:57;101851.0;;;4.49;87.07
81816;BME280;71249;52.084;5.304;2024-03-06T00:37:38;101855.0;;;4.42;87.3
81816;BME280;71249;52.084;5.304;2024-03-06T00:39:14;101853.0;;;4.37;87.23
81816;BME280;71249;52.084;5.304;2024-03-06T00:42:26;101849.0;;;4.32;86.96
81816;BME280;71249;52.084;5.304;2024-03-06T00:44:02;101852.0;;;4.26;87.36
81816;BME280;71249;52.084;5.304;2024-03-06T00:45:39;101861.0;;;4.32;87.14
81816;BME280;71249;52.084;5.304;2024-03-06T00:48:51;101855.0;;;4.32;87.0
81816;BME280;71249;52.084;5.304;2024-03-06T00:50:27;101855.0;;;4.32;87.09
81816;BME280;71249;52.084;5.304;2024-03-06T00:52:04;101850.0;;;4.28;87.16
81816;BME280;71249;52.084;5.304;2024-03-06T00:55:16;101858.0;;;4.21;87.1
81816;BME280;71249;52.084;5.304;2024-03-06T00:56:52;101862.0;;;4.17;87.02
81816;BME280;71249;52.084;5.304;2024-03-06T00:58:28;101868.0;;;4.17;87.14
81816;BME280;71249;52.084;5.304;2024-03-06T01:00:06;101868.0;;;4.13;87.31
81816;BME280;71249;52.084;5.304;2024-03-06T01:03:18;101870.0;;;4.14;87.22
81816;BME280;71249;52.084;5.304;2024-03-06T01:04:55;101873.0;;;4.13;87.39
81816;BME280;71249;52.084;5.304;2024-03-06T01:06:31;101869.0;;;4.04;86.77
81816;BME280;71249;52.084;5.304;2024-03-06T01:09:43;101873.0;;;3.99;87.38
81816;BME280;71249;52.084;5.304;2024-03-06T01:11:19;101875.0;;;3.94;87.14
81816;BME280;71249;52.084;5.304;2024-03-06T01:12:55;101880.0;;;3.97;87.14
81816;BME280;71249;52.084;5.304;2024-03-06T01:16:07;101885.0;;;3.9;87.3
81816;BME280;71249;52.084;5.304;2024-03-06T01:17:43;101887.0;;;3.86;87.29
81816;BME280;71249;52.084;5.304;2024-03-06T01:19:20;101887.0;;;3.79;87.62
81816;BME280;71249;52.084;5.304;2024-03-06T01:20:56;101889.0;;;3.81;87.48
81816;BME280;71249;52.084;5.304;2024-03-06T01:24:11;101889.0;;;3.82;87.59
81816;BME280;71249;52.084;5.304;2024-03-06T01:25:47;101886.0;;;3.82;87.81
81816;BME280;71249;52.084;5.304;2024-03-06T01:27:23;101890.0;;;3.81;87.74
81816;BME280;71249;52.084;5.304;2024-03-06T01:30:35;101892.0;;;3.77;87.97
81816;BME280;71249;52.084;5.304;2024-03-06T01:32:12;101890.0;;;3.83;88.05
81816;BME280;71249;52.084;5.304;2024-03-06T01:33:51;101894.0;;;3.9;87.91
81816;BME280;71249;52.084;5.304;2024-03-06T01:37:03;101893.0;;;3.93;87.74
81816;BME280;71249;52.084;5.304;2024-03-06T01:38:39;101900.0;;;3.93;87.9
81816;BME280;71249;52.084;5.304;2024-03-06T01:40:15;101900.0;;;4.03;87.69
81816;BME280;71249;52.084;5.304;2024-03-06T01:41:51;101896.0;;;4.05;87.59
81816;BME280;71249;52.084;5.304;2024-03-06T01:45:05;101896.0;;;4.1;87.68
81816;BME280;71249;52.084;5.304;2024-03-06T01:46:42;101892.0;;;4.12;87.87
81816;BME280;71249;52.084;5.304;2024-03-06T01:48:20;101890.0;;;4.16;87.84
81816;BME280;71249;52.084;5.304;2024-03-06T01:51:35;101887.0;;;4.14;87.82
81816;BME280;71249;52.084;5.304;2024-03-06T01:53:13;101892.0;;;4.22;87.58
81816;BME280;71249;52.084;5.304;2024-03-06T01:54:51;101893.0;;;4.16;87.66
81816;BME280;71249;52.084;5.304;2024-03-06T01:56:28;101893.0;;;4.16;87.65
81816;BME280;71249;52.084;5.304;2024-03-06T01:59:40;101892.0;;;4.21;87.57
81816;BME280;71249;52.084;5.304;2024-03-06T02:01:18;101891.0;;;4.22;87.56
81816;BME280;71249;52.084;5.304;2024-03-06T02:02:57;101890.0;;;4.26;87.37
81816;BME280;71249;52.084;5.304;2024-03-06T02:06:09;101890.0;;;4.29;87.28
81816;BME280;71249;52.084;5.304;2024-03-06T02:07:47;101892.0;;;4.2;87.26
81816;BME280;71249;52.084;5.304;2024-03-06T02:09:24;101899.0;;;4.2;87.48
81816;BME280;71249;52.084;5.304;2024-03-06T02:12:37;101900.0;;;4.2;87.6
81816;BME280;71249;52.084;5.304;2024-03-06T02:14:12;101905.0;;;4.2;87.45
81816;BME280;71249;52.084;5.304;2024-03-06T02:15:49;101906.0;;;4.22;87.59
81816;BME280;71249;52.084;5.304;2024-03-06T02:17:25;101906.0;;;4.26;87.93
81816;BME280;71249;52.084;5.304;2024-03-06T02:20:41;101901.0;;;4.24;87.88
81816;BME280;71249;52.084;5.304;2024-03-06T02:22:17;101900.0;;;4.28;87.96
81816;BME280;71249;52.084;5.304;2024-03-06T02:23:53;101905.0;;;4.3;88.07
81816;BME280;71249;52.084;5.304;2024-03-06T02:27:05;101906.0;;;4.34;87.95
81816;BME280;71249;52.084;5.304;2024-03-06T02:28:46;101905.0;;;4.37;87.94
81816;BME280;71249;52.084;5.304;2024-03-06T02:30:23;101905.0;;;4.37;87.87
81816;BME280;71249;52.084;5.304;2024-03-06T02:33:35;101903.0;;;4.37;87.7
81816;BME280;71249;52.084;5.304;2024-03-06T02:35:11;101907.0;;;4.37;87.63
81816;BME280;71249;52.084;5.304;2024-03-06T02:36:47;101909.0;;;4.37;87.47
81816;BME280;71249;52.084;5.304;2024-03-06T02:38:23;101916.0;;;4.41;87.5
81816;BME280;71249;52.084;5.304;2024-03-06T02:41:35;101917.0;;;4.41;87.16
81816;BME280;71249;52.084;5.304;2024-03-06T02:43:12;101913.0;;;4.42;86.86
81816;BME280;71249;52.084;5.304;2024-03-06T02:44:48;101911.0;;;4.42;87.32
81816;BME280;71249;52.084;5.304;2024-03-06T02:48:01;101910.0;;;4.41;87.33
81816;BME280;71249;52.084;5.304;2024-03-06T02:49:37;101913.0;;;4.42;87.56
81816;BME280;71249;52.084;5.304;2024-03-06T02:51:18;101913.0;;;4.41;87.45
81816;BME280;71249;52.084;5.304;2024-03-06T02:54:33;101915.0;;;4.42;87.69
81816;BME280;71249;52.084;5.304;2024-03-06T02:56:15;101918.0;;;4.42;87.76
81816;BME280;71249;52.084;5.304;2024-03-06T02:57:51;101915.0;;;4.42;87.56
81816;BME280;71249;52.084;5.304;2024-03-06T02:59:27;101919.0;;;4.41;87.71
81816;BME280;71249;52.084;5.304;2024-03-06T03:02:40;101912.0;;;4.39;87.65
81816;BME280;71249;52.084;5.304;2024-03-06T03:04:16;101916.0;;;4.37;87.59
81816;BME280;71249;52.084;5.304;2024-03-06T03:05:53;101914.0;;;4.38;87.44
81816;BME280;71249;52.084;5.304;2024-03-06T03:09:05;101916.0;;;4.37;87.72
81816;BME280;71249;52.084;5.304;2024-03-06T03:10:41;101914.0;;;4.29;87.66
81816;BME280;71249;52.084;5.304;2024-03-06T03:12:17;101917.0;;;4.29;87.85
81816;BME280;71249;52.084;5.304;2024-03-06T03:13:54;101912.0;;;4.26;87.47
81816;BME280;71249;52.084;5.304;2024-03-06T03:17:10;101911.0;;;4.22;87.6
81816;BME280;71249;52.084;5.304;2024-03-06T03:18:46;101913.0;;;4.2;87.39
81816;BME280;71249;52.084;5.304;2024-03-06T03:20:23;101918.0;;;4.24;87.04
81816;BME280;71249;52.084;5.304;2024-03-06T03:23:35;101917.0;;;4.16;87.19
81816;BME280;71249;52.084;5.304;2024-03-06T03:25:12;101921.0;;;4.12;87.32
81816;BME280;71249;52.084;5.304;2024-03-06T03:26:48;101922.0;;;4.18;87.07
81816;BME280;71249;52.084;5.304;2024-03-06T03:30:01;101923.0;;;4.08;87.53
81816;BME280;71249;52.084;5.304;2024-03-06T03:31:37;101924.0;;;4.12;87.66
81816;BME280;71249;52.084;5.304;2024-03-06T03:33:13;101922.0;;;4.07;87.65
81816;BME280;71249;52.084;5.304;2024-03-06T03:34:49;101922.0;;;4.09;87.7
81816;BME280;71249;52.084;5.304;2024-03-06T03:38:04;101922.0;;;4.1;87.57
81816;BME280;71249;52.084;5.304;2024-03-06T03:39:40;101930.0;;;4.09;87.24
81816;BME280;71249;52.084;5.304;2024-03-06T03:41:16;101931.0;;;4.12;87.39
81816;BME280;71249;52.084;5.304;2024-03-06T03:44:29;101931.0;;;4.1;87.53
81816;BME280;71249;52.084;5.304;2024-03-06T03:46:05;101933.0;;;4.12;87.46
81816;BME280;71249;52.084;5.304;2024-03-06T03:47:41;101937.0;;;4.1;87.31
81816;BME280;71249;52.084;5.304;2024-03-06T03:50:53;101938.0;;;4.16;87.57
81816;BME280;71249;52.084;5.304;2024-03-06T03:52:29;101938.0;;;4.18;87.42
81816;BME280;71249;52.084;5.304;2024-03-06T03:54:06;101947.0;;;4.24;87.79
81816;BME280;71249;52.084;5.304;2024-03-06T03:55:43;101938.0;;;4.28;87.64
81816;BME280;71249;52.084;5.304;2024-03-06T03:58:55;101938.0;;;4.3;87.81
81816;BME280;71249;52.084;5.304;2024-03-06T04:00:32;101936.0;;;4.34;87.71
81816;BME280;71249;52.084;5.304;2024-03-06T04:02:08;101939.0;;;4.53;87.08
81816;BME280;71249;52.084;5.304;2024-03-06T04:05:20;101933.0;;;4.34;87.09
81816;BME280;71249;52.084;5.304;2024-03-06T04:06:56;101938.0;;;4.28;87.32
81816;BME280;71249;52.084;5.304;2024-03-06T04:08:33;101937.0;;;4.24;87.54
81816;BME280;71249;52.084;5.304;2024-03-06T04:11:46;101939.0;;;4.2;87.54
81816;BME280;71249;52.084;5.304;2024-03-06T04:13:23;101940.0;;;4.17;87.6
81816;BME280;71249;52.084;5.304;2024-03-06T04:14:59;101945.0;;;4.16;87.37
81816;BME280;71249;52.084;5.304;2024-03-06T04:18:11;101947.0;;;4.18;87.1
81816;BME280;71249;52.084;5.304;2024-03-06T04:19:47;101947.0;;;4.14;86.64
81816;BME280;71249;52.084;5.304;2024-03-06T04:21:23;101945.0;;;4.08;86.87
81816;BME280;71249;52.084;5.304;2024-03-06T04:22:59;101952.0;;;4.07;87.08
81816;BME280;71249;52.084;5.304;2024-03-06T04:26:13;101951.0;;;4.04;87.3
81816;BME280;71249;52.084;5.304;2024-03-06T04:27:49;101952.0;;;4.03;87.53
81816;BME280;71249;52.084;5.304;2024-03-06T04:29:25;101955.0;;;4.03;87.42
81816;BME280;71249;52.084;5.304;2024-03-06T04:32:37;101955.0;;;3.99;87.06
81816;BME280;71249;52.084;5.304;2024-03-06T04:34:13;101953.0;;;3.96;86.95
81816;BME280;71249;52.084;5.304;2024-03-06T04:35:49;101955.0;;;3.92;86.57
81816;BME280;71249;52.084;5.304;2024-03-06T04:39:02;101961.0;;;3.94;87.31
81816;BME280;71249;52.084;5.304;2024-03-06T04:40:39;101960.0;;;3.91;87.64
81816;BME280;71249;52.084;5.304;2024-03-06T04:42:15;101963.0;;;3.93;87.38
81816;BME280;71249;52.084;5.304;2024-03-06T04:43:51;101964.0;;;3.93;87.82
81816;BME280;71249;52.084;5.304;2024-03-06T04:47:03;101967.0;;;3.91;87.95
81816;BME280;71249;52.084;5.304;2024-03-06T04:48:39;101973.0;;;3.95;87.94
81816;BME280;71249;52.084;5.304;2024-03-06T04:50:15;101975.0;;;3.93;87.46
81816;BME280;71249;52.084;5.304;2024-03-06T04:53:30;101974.0;;;3.94;87.78
81816;BME280;71249;52.084;5.304;2024-03-06T04:55:08;101980.0;;;3.93;87.5
81816;BME280;71249;52.084;5.304;2024-03-06T04:56:44;101983.0;;;3.95;87.49
81816;BME280;71249;52.084;5.304;2024-03-06T04:59:56;101982.0;;;3.97;87.37
81816;BME280;71249;52.084;5.304;2024-03-06T05:01:32;101981.0;;;3.97;87.45
81816;BME280;71249;52.084;5.304;2024-03-06T05:03:11;101980.0;;;3.97;87.77
81816;BME280;71249;52.084;5.304;2024-03-06T05:04:47;101977.0;;;3.97;87.55
81816;BME280;71249;52.084;5.304;2024-03-06T05:07:59;101980.0;;;3.91;86.94
81816;BME280;71249;52.084;5.304;2024-03-06T05:09:35;101978.0;;;3.93;87.13
81816;BME280;71249;52.084;5.304;2024-03-06T05:11:12;101980.0;;;3.88;86.9
81816;BME280;71249;52.084;5.304;2024-03-06T05:14:24;101980.0;;;3.89;87.38
81816;BME280;71249;52.084;5.304;2024-03-06T05:16:00;101982.0;;;3.86;86.62
81816;BME280;71249;52.084;5.304;2024-03-06T05:17:36;101984.0;;;3.87;87.16
81816;BME280;71249;52.084;5.304;2024-03-06T05:20:48;101983.0;;;3.8;87.05
81816;BME280;71249;52.084;5.304;2024-03-06T05:22:24;101988.0;;;3.71;86.69
81816;BME280;71249;52.084;5.304;2024-03-06T05:24:00;101994.0;;;3.7;86.72
81816;BME280;71249;52.084;5.304;2024-03-06T05:27:13;101998.0;;;3.68;86.61
81816;BME280;71249;52.084;5.304;2024-03-06T05:28:49;101999.0;;;3.62;86.49
81816;BME280;71249;52.084;5.304;2024-03-06T05:30:25;101999.0;;;3.59;86.29
81816;BME280;71249;52.084;5.304;2024-03-06T05:32:01;102006.0;;;3.57;86.37
81816;BME280;71249;52.084;5.304;2024-03-06T05:35:13;102008.0;;;3.48;85.83
81816;BME280;71249;52.084;5.304;2024-03-06T05:36:50;102012.0;;;3.47;86.22
81816;BME280;71249;52.084;5.304;2024-03-06T05:38:25;102009.0;;;3.4;86.13
81816;BME280;71249;52.084;5.304;2024-03-06T05:41:38;102018.0;;;3.32;86.79
81816;BME280;71249;52.084;5.304;2024-03-06T05:43:14;102019.0;;;3.27;86.52
81816;BME280;71249;52.084;5.304;2024-03-06T05:44:50;102026.0;;;3.21;86.22
81816;BME280;71249;52.084;5.304;2024-03-06T05:48:02;102022.0;;;3.15;85.87
81816;BME280;71249;52.084;5.304;2024-03-06T05:49:38;102021.0;;;3.1;85.86
81816;BME280;71249;52.084;5.304;2024-03-06T05:51:14;102025.0;;;3.03;86.42
81816;BME280;71249;52.084;5.304;2024-03-06T05:52:50;102026.0;;;2.98;86.29
81816;BME280;71249;52.084;5.304;2024-03-06T05:56:04;102030.0;;;2.96;86.55
81816;BME280;71249;52.084;5.304;2024-03-06T05:57:41;102035.0;;;2.9;86.5
81816;BME280;71249;52.084;5.304;2024-03-06T05:59:17;102042.0;;;2.84;86.48
81816;BME280;71249;52.084;5.304;2024-03-06T06:02:30;102040.0;;;2.77;86.47
81816;BME280;71249;52.084;5.304;2024-03-06T06:04:07;102042.0;;;2.72;86.35
81816;BME280;71249;52.084;5.304;2024-03-06T06:05:43;102049.0;;;2.66;86.8
81816;BME280;71249;52.084;5.304;2024-03-06T06:08:55;102055.0;;;2.71;86.53
81816;BME280;71249;52.084;5.304;2024-03-06T06:10:31;102058.0;;;2.7;86.86
81816;BME280;71249;52.084;5.304;2024-03-06T06:12:08;102060.0;;;2.65;86.38
81816;BME280;71249;52.084;5.304;2024-03-06T06:15:20;102061.0;;;2.63;86.34
81816;BME280;71249;52.084;5.304;2024-03-06T06:16:56;102062.0;;;2.61;86.91
81816;BME280;71249;52.084;5.304;2024-03-06T06:18:33;102066.0;;;2.64;86.9
81816;BME280;71249;52.084;5.304;2024-03-06T06:20:10;102070.0;;;2.61;86.82
81816;BME280;71249;52.084;5.304;2024-03-06T06:23:22;102075.0;;;2.56;86.97
81816;BME280;71249;52.084;5.304;2024-03-06T06:24:58;102072.0;;;2.48;86.49
81816;BME280;71249;52.084;5.304;2024-03-06T06:26:35;102077.0;;;2.5;86.73
81816;BME280;71249;52.084;5.304;2024-03-06T06:29:47;102083.0;;;2.46;86.92
81816;BME280;71249;52.084;5.304;2024-03-06T06:31:23;102090.0;;;2.38;87.35
81816;BME280;71249;52.084;5.304;2024-03-06T06:33:00;102089.0;;;2.48;87.3
81816;BME280;71249;52.084;5.304;2024-03-06T06:36:12;102088.0;;;2.48;87.69
81816;BME280;71249;52.084;5.304;2024-03-06T06:37:48;102097.0;;;2.46;87.81
81816;BME280;71249;52.084;5.304;2024-03-06T06:39:24;102097.0;;;2.48;87.99
81816;BME280;71249;52.084;5.304;2024-03-06T06:41:00;102100.0;;;2.54;88.01
81816;BME280;71249;52.084;5.304;2024-03-06T06:44:12;102110.0;;;2.58;87.93
81816;BME280;71249;52.084;5.304;2024-03-06T06:45:48;102115.0;;;2.56;88.0
81816;BME280;71249;52.084;5.304;2024-03-06T06:47:24;102115.0;;;2.56;88.27
81816;BME280;71249;52.084;5.304;2024-03-06T06:50:37;102116.0;;;2.63;88.2
81816;BME280;71249;52.084;5.304;2024-03-06T06:52:14;102121.0;;;2.7;88.5
81816;BME280;71249;52.084;5.304;2024-03-06T06:53:50;102120.0;;;2.73;88.54
81816;BME280;71249;52.084;5.304;2024-03-06T06:57:02;102123.0;;;2.8;88.59
81816;BME280;71249;52.084;5.304;2024-03-06T06:58:38;102131.0;;;2.87;88.63
81816;BME280;71249;52.084;5.304;2024-03-06T07:00:15;102136.0;;;2.94;88.81
81816;BME280;71249;52.084;5.304;2024-03-06T07:03:27;102138.0;;;3.05;88.79
81816;BME280;71249;52.084;5.304;2024-03-06T07:05:04;102142.0;;;3.07;89.04
81816;BME280;71249;52.084;5.304;2024-03-06T07:06:40;102139.0;;;3.17;89.04
81816;BME280;71249;52.084;5.304;2024-03-06T07:08:16;102144.0;;;3.25;89.25
81816;BME280;71249;52.084;5.304;2024-03-06T07:11:28;102146.0;;;3.27;89.26
81816;BME280;71249;52.084;5.304;2024-03-06T07:13:04;102148.0;;;3.33;89.52
81816;BME280;71249;52.084;5.304;2024-03-06T07:14:40;102151.0;;;3.43;89.61
81816;BME280;71249;52.084;5.304;2024-03-06T07:17:52;102155.0;;;3.48;89.96
81816;BME280;71249;52.084;5.304;2024-03-06T07:19:29;102156.0;;;3.6;89.98
81816;BME280;71249;52.084;5.304;2024-03-06T07:21:04;102163.0;;;3.79;89.97
81816;BME280;71249;52.084;5.304;2024-03-06T07:24:17;102162.0;;;3.88;90.11
81816;BME280;71249;52.084;5.304;2024-03-06T07:25:53;102167.0;;;3.97;90.01
81816;BME280;71249;52.084;5.304;2024-03-06T07:27:29;102166.0;;;4.07;89.89
81816;BME280;71249;52.084;5.304;2024-03-06T07:29:05;102162.0;;;4.28;89.63
81816;BME280;71249;52.084;5.304;2024-03-06T07:32:17;102167.0;;;4.24;89.25
81816;BME280;71249;52.084;5.304;2024-03-06T07:33:53;102168.0;;;4.32;89.64
81816;BME280;71249;52.084;5.304;2024-03-06T07:35:29;102172.0;;;4.34;89.65
81816;BME280;71249;52.084;5.304;2024-03-06T07:38:42;102173.0;;;4.32;89.61
81816;BME280;71249;52.084;5.304;2024-03-06T07:40:18;102174.0;;;4.41;89.55
81816;BME280;71249;52.084;5.304;2024-03-06T07:41:54;102178.0;;;4.43;89.56
81816;BME280;71249;52.084;5.304;2024-03-06T07:45:06;102181.0;;;4.49;89.79
81816;BME280;71249;52.084;5.304;2024-03-06T07:46:43;102181.0;;;4.67;89.59
81816;BME280;71249;52.084;5.304;2024-03-06T07:48:19;102180.0;;;4.74;89.54
81816;BME280;71249;52.084;5.304;2024-03-06T07:51:31;102186.0;;;4.86;89.39
81816;BME280;71249;52.084;5.304;2024-03-06T07:53:07;102192.0;;;4.91;89.42
81816;BME280;71249;52.084;5.304;2024-03-06T07:54:44;102192.0;;;5.05;89.56
81816;BME280;71249;52.084;5.304;2024-03-06T07:56:19;102192.0;;;5.12;89.58
81816;BME280;71249;52.084;5.304;2024-03-06T07:59:32;102196.0;;;5.16;89.2
81816;BME280;71249;52.084;5.304;2024-03-06T08:01:08;102195.0;;;5.2;89.86
81816;BME280;71249;52.084;5.304;2024-03-06T08:02:44;102199.0;;;5.34;89.5
81816;BME280;71249;52.084;5.304;2024-03-06T08:05:56;102201.0;;;5.43;89.42
81816;BME280;71249;52.084;5.304;2024-03-06T08:07:32;102210.0;;;5.42;89.53
81816;BME280;71249;52.084;5.304;2024-03-06T08:09:08;102209.0;;;5.5;89.79
81816;BME280;71249;52.084;5.304;2024-03-06T08:12:21;102200.0;;;5.65;89.73
81816;BME280;71249;52.084;5.304;2024-03-06T08:13:58;102205.0;;;5.72;89.74
81816;BME280;71249;52.084;5.304;2024-03-06T08:15:34;102198.0;;;5.89;89.85
81816;BME280;71249;52.084;5.304;2024-03-06T08:18:46;102203.0;;;5.88;89.93
81816;BME280;71249;52.084;5.304;2024-03-06T08:20:22;102205.0;;;6.03;90.13
81816;BME280;71249;52.084;5.304;2024-03-06T08:21:58;102211.0;;;6.17;89.86
81816;BME280;71249;52.084;5.304;2024-03-06T08:23:34;102211.0;;;6.32;89.38
81816;BME280;71249;52.084;5.304;2024-03-06T08:26:48;102212.0;;;6.37;89.4
81816;BME280;71249;52.084;5.304;2024-03-06T08:28:25;102213.0;;;6.51;89.2
81816;BME280;71249;52.084;5.304;2024-03-06T08:30:01;102216.0;;;6.49;89.35
81816;BME280;71249;52.084;5.304;2024-03-06T08:33:13;102221.0;;;6.56;89.26
81816;BME280;71249;52.084;5.304;2024-03-06T08:34:49;102221.0;;;6.7;88.71
81816;BME280;71249;52.084;5.304;2024-03-06T08:36:25;102231.0;;;6.76;89.15
81816;BME280;71249;52.084;5.304;2024-03-06T08:39:37;102228.0;;;6.96;88.48
81816;BME280;71249;52.084;5.304;2024-03-06T08:41:13;102232.0;;;6.92;88.3
81816;BME280;71249;52.084;5.304;2024-03-06T08:42:49;102234.0;;;6.94;88.58
81816;BME280;71249;52.084;5.304;2024-03-06T08:44:25;102235.0;;;6.99;87.82
81816;BME280;71249;52.084;5.304;2024-03-06T08:47:38;102240.0;;;6.97;88.4
81816;BME280;71249;52.084;5.304;2024-03-06T08:49:14;102246.0;;;7.12;88.51
81816;BME280;71249;52.084;5.304;2024-03-06T08:50:50;102249.0;;;7.15;87.93
81816;BME280;71249;52.084;5.304;2024-03-06T08:54:02;102244.0;;;7.26;87.78
81816;BME280;71249;52.084;5.304;2024-03-06T08:55:38;102251.0;;;7.34;87.96
81816;BME280;71249;52.084;5.304;2024-03-06T08:57:14;102249.0;;;7.34;87.73
81816;BME280;71249;52.084;5.304;2024-03-06T09:00:27;102255.0;;;7.35;88.03
81816;BME280;71249;52.084;5.304;2024-03-06T09:02:12;102255.0;;;7.51;88.11
81816;BME280;71249;52.084;5.304;2024-03-06T09:03:49;102263.0;;;7.55;88.14
81816;BME280;71249;52.084;5.304;2024-03-06T09:05:25;102266.0;;;7.54;88.19
81816;BME280;71249;52.084;5.304;2024-03-06T09:08:37;102266.0;;;7.76;87.76
81816;BME280;71249;52.084;5.304;2024-03-06T09:10:13;102268.0;;;8.0;87.1
81816;BME280;71249;52.084;5.304;2024-03-06T09:11:52;102268.0;;;8.01;86.36
81816;BME280;71249;52.084;5.304;2024-03-06T09:15:06;102266.0;;;8.11;86.17
81816;BME280;71249;52.084;5.304;2024-03-06T09:16:42;102271.0;;;8.16;85.5
81816;BME280;71249;52.084;5.304;2024-03-06T09:18:18;102272.0;;;8.18;85.1
81816;BME280;71249;52.084;5.304;2024-03-06T09:21:30;102283.0;;;8.06;86.11
81816;BME280;71249;52.084;5.304;2024-03-06T09:23:06;102280.0;;;8.17;85.98
81816;BME280;71249;52.084;5.304;2024-03-06T09:24:42;102281.0;;;8.14;86.21
81816;BME280;71249;52.084;5.304;2024-03-06T09:26:18;102283.0;;;8.28;86.0
81816;BME280;71249;52.084;5.304;2024-03-06T09:29:31;102287.0;;;8.45;85.99
81816;BME280;71249;52.084;5.304;2024-03-06T09:31:07;102287.0;;;8.45;84.88
81816;BME280;71249;52.084;5.304;2024-03-06T09:32:44;102291.0;;;8.57;85.32
81816;BME280;71249;52.084;5.304;2024-03-06T09:35:56;102298.0;;;8.64;84.83
81816;BME280;71249;52.084;5.304;2024-03-06T09:37:32;102296.0;;;8.75;84.39
81816;BME280;71249;52.084;5.304;2024-03-06T09:39:08;102296.0;;;8.81;84.23
81816;BME280;71249;52.084;5.304;2024-03-06T09:42:20;102299.0;;;8.81;84.39
81816;BME280;71249;52.084;5.304;2024-03-06T09:43:56;102303.0;;;8.77;85.0
81816;BME280;71249;52.084;5.304;2024-03-06T09:45:33;102302.0;;;8.88;85.37
81816;BME280;71249;52.084;5.304;2024-03-06T09:47:12;102305.0;;;9.11;85.04
81816;BME280;71249;52.084;5.304;2024-03-06T09:50:29;102299.0;;;9.42;84.79
81816;BME280;71249;52.084;5.304;2024-03-06T09:52:08;102298.0;;;9.64;84.08
81816;BME280;71249;52.084;5.304;2024-03-06T09:53:45;102301.0;;;9.91;83.77
81816;BME280;71249;52.084;5.304;2024-03-06T09:57:00;102305.0;;;10.1;82.33
81816;BME280;71249;52.084;5.304;2024-03-06T09:58:36;102302.0;;;10.28;81.48
81816;BME280;71249;52.084;5.304;2024-03-06T10:00:13;102303.0;;;10.41;80.88
81816;BME280;71249;52.084;5.304;2024-03-06T10:01:53;102310.0;;;10.73;80.08
81816;BME280;71249;52.084;5.304;2024-03-06T10:05:20;102307.0;;;10.88;78.36
81816;BME280;71249;52.084;5.304;2024-03-06T10:06:58;102313.0;;;10.77;78.52
81816;BME280;71249;52.084;5.304;2024-03-06T10:08:35;102313.0;;;10.83;78.33
81816;BME280;71249;52.084;5.304;2024-03-06T10:10:11;102318.0;;;10.65;78.03
81816;BME280;71249;52.084;5.304;2024-03-06T10:13:24;102316.0;;;10.62;77.74
81816;BME280;71249;52.084;5.304;2024-03-06T10:15:02;102317.0;;;10.64;77.34
81816;BME280;71249;52.084;5.304;2024-03-06T10:16:38;102317.0;;;10.77;77.88
81816;BME280;71249;52.084;5.304;2024-03-06T10:20:17;102312.0;;;11.0;78.38
81816;BME280;71249;52.084;5.304;2024-03-06T10:21:56;102315.0;;;10.85;78.19
81816;BME280;71249;52.084;5.304;2024-03-06T10:23:32;102316.0;;;11.21;77.69
81816;BME280;71249;52.084;5.304;2024-03-06T10:25:08;102320.0;;;11.47;76.97
81816;BME280;71249;52.084;5.304;2024-03-06T10:28:21;102320.0;;;11.69;77.58
81816;BME280;71249;52.084;5.304;2024-03-06T10:30:01;102320.0;;;12.08;76.11
81816;BME280;71249;52.084;5.304;2024-03-06T10:31:37;102317.0;;;12.32;74.3
81816;BME280;71249;52.084;5.304;2024-03-06T10:33:14;102314.0;;;12.56;73.73
81816;BME280;71249;52.084;5.304;2024-03-06T10:36:31;102316.0;;;12.66;72.72
81816;BME280;71249;52.084;5.304;2024-03-06T10:38:09;102317.0;;;13.05;73.63
81816;BME280;71249;52.084;5.304;2024-03-06T10:39:45;102317.0;;;13.23;70.37
81816;BME280;71249;52.084;5.304;2024-03-06T10:43:09;102320.0;;;13.15;68.47
81816;BME280;71249;52.084;5.304;2024-03-06T10:44:52;102320.0;;;13.57;67.58
81816;BME280;71249;52.084;5.304;2024-03-06T10:46:30;102322.0;;;13.53;67.06
81816;BME280;71249;52.084;5.304;2024-03-06T10:48:08;102321.0;;;13.77;67.08
81816;BME280;71249;52.084;5.304;2024-03-06T10:51:23;102328.0;;;13.88;65.17
81816;BME280;71249;52.084;5.304;2024-03-06T10:52:59;102324.0;;;14.1;64.61
81816;BME280;71249;52.084;5.304;2024-03-06T10:54:36;102324.0;;;14.38;63.1
81816;BME280;71249;52.084;5.304;2024-03-06T10:56:12;102325.0;;;14.6;62.67
81816;BME280;71249;52.084;5.304;2024-03-06T10:59:29;102331.0;;;14.16;63.84
81816;BME280;71249;52.084;5.304;2024-03-06T11:01:06;102322.0;;;14.42;61.36
81816;BME280;71249;52.084;5.304;2024-03-06T11:02:46;102325.0;;;14.78;62.89
81816;BME280;71249;52.084;5.304;2024-03-06T11:06:02;102322.0;;;14.83;61.99
81816;BME280;71249;52.084;5.304;2024-03-06T11:07:39;102322.0;;;14.84;60.43
81816;BME280;71249;52.084;5.304;2024-03-06T11:09:15;102322.0;;;14.9;61.08
81816;BME280;71249;52.084;5.304;2024-03-06T11:10:51;102326.0;;;15.33;60.48
81816;BME280;71249;52.084;5.304;2024-03-06T11:14:10;102328.0;;;15.56;58.87